createdAt,value
2019-03-12T00:00:08.678Z,6.37
2019-03-12T00:02:36.948Z,7.70
2019-03-12T00:05:07.003Z,6.22
2019-03-12T00:07:35.232Z,6.87
2019-03-12T00:10:05.001Z,6.47
2019-03-12T00:12:33.249Z,6.35
2019-03-12T00:15:01.487Z,6.62
2019-03-12T00:17:29.746Z,6.75
2019-03-12T00:19:57.973Z,6.40
2019-03-12T00:22:26.205Z,8.38
2019-03-12T00:24:54.427Z,8.23
2019-03-12T00:27:22.669Z,7.35
2019-03-12T00:29:50.912Z,6.95
2019-03-12T00:32:19.118Z,7.10
2019-03-12T00:34:47.333Z,6.65
2019-03-12T00:37:15.566Z,8.03
2019-03-12T00:39:43.795Z,7.50
2019-03-12T00:42:12.303Z,7.17
2019-03-12T00:44:40.661Z,6.45
2019-03-12T00:47:09.130Z,6.40
2019-03-12T00:49:37.349Z,7.60
2019-03-12T00:52:05.583Z,6.92
2019-03-12T00:54:33.803Z,7.70
2019-03-12T00:57:02.053Z,6.58
2019-03-12T00:59:30.509Z,8.00
2019-03-12T01:01:58.728Z,7.80
2019-03-12T01:04:26.957Z,7.40
2019-03-12T01:06:55.166Z,7.85
2019-03-12T01:09:23.412Z,6.97
2019-03-12T01:11:51.637Z,7.28
2019-03-12T01:14:19.859Z,7.55
2019-03-12T01:16:48.094Z,6.85
2019-03-12T01:19:16.329Z,7.30
2019-03-12T01:21:44.559Z,7.37
2019-03-12T01:24:12.846Z,7.28
2019-03-12T01:26:41.129Z,7.67
2019-03-12T01:29:09.338Z,7.40
2019-03-12T01:31:37.562Z,6.70
2019-03-12T01:34:05.805Z,5.35
2019-03-12T01:36:34.016Z,6.15
2019-03-12T01:39:02.332Z,6.70
2019-03-12T01:41:30.520Z,7.90
2019-03-12T01:43:58.754Z,6.10
2019-03-12T01:46:26.979Z,6.35
2019-03-12T01:48:55.285Z,6.58
2019-03-12T01:51:23.509Z,6.12
2019-03-12T01:53:51.734Z,6.35
2019-03-12T01:56:19.954Z,6.65
2019-03-12T01:58:48.218Z,6.17
2019-03-12T02:01:16.429Z,8.40
2019-03-12T02:03:44.658Z,5.97
2019-03-12T02:06:12.876Z,6.28
2019-03-12T02:08:41.118Z,6.00
2019-03-12T02:11:09.347Z,5.33
2019-03-12T02:13:37.592Z,5.50
2019-03-12T02:16:05.831Z,6.28
2019-03-12T02:18:34.067Z,5.10
2019-03-12T02:21:02.283Z,5.37
2019-03-12T02:23:30.510Z,5.60
2019-03-12T02:25:58.718Z,5.50
2019-03-12T02:28:27.208Z,5.33
2019-03-12T02:30:55.429Z,5.08
2019-03-12T02:33:23.669Z,4.40
2019-03-12T02:35:51.887Z,4.87
2019-03-12T02:38:20.135Z,4.60
2019-03-12T02:40:48.341Z,4.60
2019-03-12T02:43:16.840Z,4.30
2019-03-12T02:45:45.139Z,4.92
2019-03-12T02:48:13.440Z,4.53
2019-03-12T02:50:41.674Z,4.62
2019-03-12T02:53:09.919Z,4.90
2019-03-12T02:55:38.151Z,5.10
2019-03-12T02:58:06.373Z,4.67
2019-03-12T03:00:34.607Z,4.35
2019-03-12T03:03:02.840Z,5.00
2019-03-12T03:05:32.720Z,4.55
2019-03-12T03:08:08.398Z,3.90
2019-03-12T03:10:36.621Z,4.95
2019-03-12T03:13:04.943Z,4.83
2019-03-12T03:15:38.575Z,4.33
2019-03-12T03:18:06.819Z,3.92
2019-03-12T03:20:35.066Z,3.80
2019-03-12T03:23:03.299Z,3.60
2019-03-12T03:25:31.626Z,4.10
2019-03-12T03:27:59.867Z,3.20
2019-03-12T03:30:28.144Z,4.35
2019-03-12T03:32:56.371Z,3.90
2019-03-12T03:35:24.601Z,4.22
2019-03-12T03:37:52.818Z,3.70
2019-03-12T03:40:21.389Z,3.80
2019-03-12T03:42:49.677Z,4.17
2019-03-12T03:45:17.985Z,4.33
2019-03-12T03:47:46.289Z,4.20
2019-03-12T03:50:17.943Z,3.70
2019-03-12T03:55:18.694Z,4.33
2019-03-12T03:57:47.155Z,3.90
2019-03-12T04:00:20.952Z,3.12
2019-03-12T04:02:49.263Z,3.77
2019-03-12T04:05:17.550Z,4.08
2019-03-12T04:07:45.843Z,3.60
2019-03-12T04:10:14.197Z,3.42
2019-03-12T04:12:42.442Z,3.58
2019-03-12T04:15:16.314Z,3.42
2019-03-12T04:17:44.551Z,3.15
2019-03-12T04:20:14.219Z,3.75
2019-03-12T04:22:42.489Z,3.40
2019-03-12T04:25:10.759Z,3.77
2019-03-12T04:27:38.992Z,3.67
2019-03-12T04:30:10.482Z,3.30
2019-03-12T04:32:38.774Z,3.87
2019-03-12T04:35:09.933Z,3.52
2019-03-12T04:37:38.159Z,3.72
2019-03-12T04:40:09.373Z,3.37
2019-03-12T04:42:37.605Z,4.40
2019-03-12T04:45:09.021Z,4.35
2019-03-12T04:47:37.241Z,3.08
2019-03-12T04:50:07.429Z,3.52
2019-03-12T04:52:35.626Z,3.55
2019-03-12T04:55:05.995Z,3.85
2019-03-12T04:57:34.236Z,3.75
2019-03-12T05:00:03.288Z,3.95
2019-03-12T05:02:31.502Z,3.62
2019-03-12T05:04:59.735Z,4.03
2019-03-12T05:07:27.971Z,3.92
2019-03-12T05:09:56.209Z,4.20
2019-03-12T05:12:24.443Z,4.20
2019-03-12T05:14:52.676Z,4.50
2019-03-12T05:17:20.909Z,4.72
2019-03-12T05:19:49.139Z,4.33
2019-03-12T05:22:17.438Z,4.42
2019-03-12T05:24:45.706Z,4.92
2019-03-12T05:27:13.925Z,4.95
2019-03-12T05:29:42.149Z,4.65
2019-03-12T05:32:10.370Z,4.03
2019-03-12T05:34:38.591Z,5.45
2019-03-12T05:37:06.825Z,4.45
2019-03-12T05:39:35.061Z,4.33
2019-03-12T05:42:03.529Z,3.58
2019-03-12T05:44:31.779Z,4.42
2019-03-12T05:47:03.092Z,4.55
2019-03-12T05:49:31.326Z,4.10
2019-03-12T05:51:59.542Z,4.80
2019-03-12T05:54:27.760Z,4.45
2019-03-12T05:56:56.072Z,4.45
2019-03-12T05:59:24.377Z,4.35
2019-03-12T06:01:52.607Z,4.80
2019-03-12T06:04:20.911Z,5.10
2019-03-12T06:06:49.135Z,4.78
2019-03-12T06:09:29.455Z,5.15
2019-03-12T06:11:47.301Z,4.33
2019-03-12T06:14:15.506Z,4.50
2019-03-12T06:16:43.739Z,5.05
2019-03-12T06:19:11.966Z,4.60
2019-03-12T06:21:40.237Z,4.05
2019-03-12T06:24:08.970Z,4.67
2019-03-12T06:26:37.436Z,5.10
2019-03-12T06:29:06.297Z,4.42
2019-03-12T06:31:41.813Z,4.83
2019-03-12T06:34:11.750Z,4.95
2019-03-12T06:36:57.744Z,5.08
2019-03-12T06:39:30.836Z,4.70
2019-03-12T06:42:09.411Z,4.22
2019-03-12T06:44:54.122Z,4.25
2019-03-12T06:47:24.056Z,5.12
2019-03-12T06:49:53.942Z,4.15
2019-03-12T06:52:32.475Z,3.70
2019-03-12T06:55:02.552Z,4.50
2019-03-12T06:57:35.062Z,4.17
2019-03-12T07:00:05.386Z,4.90
2019-03-12T07:02:35.270Z,3.92
2019-03-12T07:05:11.311Z,3.95
2019-03-12T07:07:47.210Z,4.15
2019-03-12T07:10:33.143Z,4.10
2019-03-12T07:13:03.014Z,5.33
2019-03-12T07:15:44.862Z,4.20
2019-03-12T07:18:14.728Z,4.90
2019-03-12T07:20:56.349Z,4.60
2019-03-12T07:23:26.443Z,4.83
2019-03-12T07:26:02.290Z,4.47
2019-03-12T07:28:33.889Z,4.65
2019-03-12T07:31:04.051Z,4.35
2019-03-12T07:33:39.733Z,4.55
2019-03-12T07:36:15.309Z,4.08
2019-03-12T07:38:45.235Z,4.85
2019-03-12T07:41:32.711Z,4.67
2019-03-12T07:44:02.899Z,4.17
2019-03-12T07:46:44.791Z,5.58
2019-03-12T07:49:30.815Z,5.03
2019-03-12T07:52:00.720Z,4.95
2019-03-12T07:54:30.624Z,4.12
2019-03-12T07:57:06.122Z,4.45
2019-03-12T07:59:36.043Z,3.75
2019-03-12T08:02:06.081Z,4.05
2019-03-12T08:04:44.853Z,3.70
2019-03-12T08:07:23.538Z,4.08
2019-03-12T08:09:53.406Z,3.30
2019-03-12T08:12:23.322Z,3.58
2019-03-12T08:14:53.195Z,4.33
2019-03-12T08:17:25.790Z,3.30
2019-03-12T08:20:10.888Z,3.83
2019-03-12T08:22:40.786Z,4.53
2019-03-12T08:25:13.481Z,3.05
2019-03-12T08:27:55.169Z,3.02
2019-03-12T08:30:40.111Z,4.40
2019-03-12T08:33:25.883Z,3.77
2019-03-12T08:35:58.537Z,3.72
2019-03-12T08:38:46.234Z,3.25
2019-03-12T08:41:15.147Z,3.55
2019-03-12T08:43:50.943Z,3.80
2019-03-12T08:46:22.366Z,3.25
2019-03-12T08:48:55.385Z,3.25
2019-03-12T08:51:40.287Z,3.55
2019-03-12T08:54:10.162Z,3.58
2019-03-12T08:56:45.722Z,3.80
2019-03-12T08:59:31.586Z,3.95
2019-03-12T09:02:17.710Z,4.03
2019-03-12T09:05:02.643Z,3.83
2019-03-12T09:07:38.257Z,3.77
2019-03-12T09:10:10.419Z,4.03
2019-03-12T09:12:49.413Z,2.85
2019-03-12T09:15:28.246Z,3.52
2019-03-12T09:18:06.809Z,2.92
2019-03-12T09:20:45.479Z,3.50
2019-03-12T09:23:21.351Z,3.17
2019-03-12T09:26:03.032Z,3.02
2019-03-12T09:28:40.287Z,2.98
2019-03-12T09:31:13.191Z,3.25
2019-03-12T09:33:48.930Z,2.90
2019-03-12T09:36:30.763Z,3.20
2019-03-12T09:39:03.338Z,3.35
2019-03-12T09:41:49.302Z,3.00
2019-03-12T09:44:19.158Z,3.05
2019-03-12T09:46:51.969Z,3.45
2019-03-12T09:49:27.385Z,2.77
2019-03-12T09:52:11.470Z,3.00
2019-03-12T09:54:57.412Z,2.83
2019-03-12T09:57:30.378Z,3.50
2019-03-12T10:00:00.370Z,2.70
2019-03-12T10:02:32.937Z,2.80
2019-03-12T10:05:02.893Z,2.72
2019-03-12T10:07:35.818Z,2.80
2019-03-12T10:10:07.113Z,2.60
2019-03-12T10:12:39.901Z,2.90
2019-03-12T10:15:25.180Z,3.20
2019-03-12T10:18:02.645Z,2.65
2019-03-12T10:20:38.100Z,2.95
2019-03-12T10:23:07.968Z,3.30
2019-03-12T10:25:55.938Z,3.12
2019-03-12T10:28:25.862Z,3.65
2019-03-12T10:31:01.509Z,3.95
2019-03-12T10:33:34.310Z,3.40
2019-03-12T10:36:20.626Z,3.00
2019-03-12T10:39:19.291Z,3.02
2019-03-12T10:42:03.692Z,2.70
2019-03-12T10:44:51.643Z,3.30
2019-03-12T10:47:21.535Z,3.20
2019-03-12T10:49:49.837Z,3.85
2019-03-12T10:52:18.382Z,3.50
2019-03-12T10:54:46.664Z,2.98
2019-03-12T10:57:14.878Z,2.98
2019-03-12T10:59:43.138Z,2.87
2019-03-12T11:02:11.387Z,3.08
2019-03-12T11:04:39.697Z,2.67
2019-03-12T11:07:16.391Z,3.10
2019-03-12T11:09:37.883Z,3.05
2019-03-12T11:12:06.156Z,3.33
2019-03-12T11:14:34.371Z,3.20
2019-03-12T11:17:02.626Z,2.92
2019-03-12T11:19:30.829Z,3.65
2019-03-12T11:21:59.132Z,3.50
2019-03-12T11:24:27.624Z,3.30
2019-03-12T11:26:55.850Z,3.35
2019-03-12T11:29:24.081Z,3.08
2019-03-12T11:31:52.320Z,2.27
2019-03-12T11:34:20.546Z,3.37
2019-03-12T11:36:48.848Z,3.45
2019-03-12T11:39:17.385Z,2.42
2019-03-12T11:41:45.603Z,2.70
2019-03-12T11:44:14.099Z,2.85
2019-03-12T11:46:45.530Z,3.35
2019-03-12T11:49:12.399Z,2.45
2019-03-12T11:51:40.725Z,2.90
2019-03-12T11:54:09.003Z,2.77
2019-03-12T11:56:37.279Z,2.77
2019-03-12T11:59:05.566Z,3.62
2019-03-12T12:01:33.821Z,2.90
2019-03-12T12:04:02.049Z,3.37
2019-03-12T12:06:30.375Z,2.67
2019-03-12T12:08:58.670Z,3.27
2019-03-12T12:11:26.918Z,2.92
2019-03-12T12:13:55.141Z,3.50
2019-03-12T12:16:23.389Z,2.52
2019-03-12T12:18:51.629Z,3.17
2019-03-12T12:21:19.849Z,3.08
2019-03-12T12:23:48.081Z,2.87
2019-03-12T12:26:16.302Z,3.17
2019-03-12T12:28:44.822Z,2.80
2019-03-12T12:31:13.344Z,3.50
2019-03-12T12:33:41.834Z,3.00
2019-03-12T12:36:10.070Z,2.50
2019-03-12T12:38:38.292Z,2.70
2019-03-12T12:41:06.550Z,2.65
2019-03-12T12:43:34.818Z,2.52
2019-03-12T12:46:03.042Z,2.22
2019-03-12T12:48:31.311Z,2.87
2019-03-12T12:51:03.421Z,2.60
2019-03-12T12:53:29.797Z,2.52
2019-03-12T12:55:58.016Z,2.90
2019-03-12T12:58:26.269Z,2.45
2019-03-12T13:00:54.671Z,2.50
2019-03-12T13:03:22.897Z,2.80
2019-03-12T13:05:51.135Z,2.85
2019-03-12T13:08:19.427Z,2.20
2019-03-12T13:10:47.679Z,2.70
2019-03-12T13:13:16.185Z,2.65
2019-03-12T13:15:44.650Z,2.95
2019-03-12T13:18:12.882Z,2.80
2019-03-12T13:20:41.110Z,3.25
2019-03-12T13:23:09.662Z,3.08
2019-03-12T13:25:38.002Z,2.52
2019-03-12T13:28:06.215Z,3.65
2019-03-12T13:30:34.458Z,3.33
2019-03-12T13:33:02.702Z,3.30
2019-03-12T13:35:30.963Z,2.90
2019-03-12T13:37:59.304Z,3.12
2019-03-12T13:40:27.628Z,2.80
2019-03-12T13:42:55.914Z,2.80
2019-03-12T13:45:28.930Z,2.90
2019-03-12T13:47:57.435Z,2.62
2019-03-12T13:50:25.815Z,2.70
2019-03-12T13:52:54.138Z,2.58
2019-03-12T13:55:22.522Z,2.62
2019-03-12T13:57:50.883Z,2.98
2019-03-12T14:00:20.506Z,2.80
2019-03-12T14:02:48.768Z,2.30
2019-03-12T14:05:17.111Z,2.58
2019-03-12T14:07:45.380Z,2.17
2019-03-12T14:10:23.235Z,2.55
2019-03-12T14:12:52.557Z,2.30
2019-03-12T14:15:23.547Z,2.20
2019-03-12T14:17:51.808Z,2.77
2019-03-12T14:20:38.110Z,2.35
2019-03-12T14:23:06.526Z,2.90
2019-03-12T14:25:36.225Z,2.92
2019-03-12T14:28:04.759Z,2.37
2019-03-12T14:30:33.035Z,2.98
2019-03-12T14:33:01.332Z,2.22
2019-03-12T14:35:29.687Z,2.80
2019-03-12T14:37:58.167Z,2.27
2019-03-12T14:40:26.436Z,2.27
2019-03-12T14:42:54.644Z,2.30
2019-03-12T14:45:25.202Z,2.42
2019-03-12T14:47:53.475Z,2.22
2019-03-12T14:50:22.826Z,2.72
2019-03-12T14:52:54.284Z,2.60
2019-03-12T14:55:22.533Z,2.65
2019-03-12T14:57:50.751Z,2.17
2019-03-12T15:00:23.410Z,2.27
2019-03-12T15:02:51.716Z,2.20
2019-03-12T15:05:19.941Z,2.10
2019-03-12T15:07:48.246Z,2.22
2019-03-12T15:10:16.576Z,2.47
2019-03-12T15:12:44.899Z,2.20
2019-03-12T15:15:14.058Z,2.12
2019-03-12T15:17:42.365Z,2.10
2019-03-12T15:20:14.381Z,2.37
2019-03-12T15:22:42.735Z,3.02
2019-03-12T15:25:12.293Z,2.27
2019-03-12T15:27:40.604Z,2.58
2019-03-12T15:30:11.830Z,2.30
2019-03-12T15:32:40.098Z,2.70
2019-03-12T15:35:08.303Z,2.37
2019-03-12T15:37:36.537Z,2.05
2019-03-12T15:40:08.084Z,2.10
2019-03-12T15:42:36.360Z,2.50
2019-03-12T15:45:09.282Z,2.42
2019-03-12T15:47:38.826Z,2.20
2019-03-12T15:50:15.025Z,1.95
2019-03-12T15:52:43.254Z,1.60
2019-03-12T15:55:11.485Z,2.40
2019-03-12T15:57:39.828Z,2.20
2019-03-12T16:00:13.787Z,2.12
2019-03-12T16:02:42.030Z,1.80
2019-03-12T16:05:10.284Z,1.98
2019-03-12T16:07:38.559Z,2.27
2019-03-12T16:10:12.108Z,2.20
2019-03-12T16:12:40.332Z,2.00
2019-03-12T16:15:14.059Z,4.58
2019-03-12T16:17:42.325Z,2.02
2019-03-12T16:20:15.508Z,2.17
2019-03-12T16:22:43.773Z,2.00
2019-03-12T16:25:12.000Z,1.98
2019-03-12T16:27:40.233Z,2.00
2019-03-12T16:30:13.860Z,2.45
2019-03-12T16:32:42.106Z,2.25
2019-03-12T16:35:10.355Z,2.12
2019-03-12T16:37:38.588Z,2.10
2019-03-12T16:40:12.091Z,2.33
2019-03-12T16:42:40.335Z,2.50
2019-03-12T16:45:12.977Z,1.98
2019-03-12T16:47:41.216Z,2.40
2019-03-12T16:50:13.891Z,2.10
2019-03-12T16:52:42.122Z,2.37
2019-03-12T16:55:11.673Z,2.72
2019-03-12T16:57:40.006Z,2.25
2019-03-12T17:00:15.682Z,2.27
2019-03-12T17:02:43.926Z,2.50
2019-03-12T17:05:14.896Z,1.90
2019-03-12T17:07:43.185Z,2.00
2019-03-12T17:10:19.126Z,2.00
2019-03-12T17:12:47.363Z,2.17
2019-03-12T17:15:19.123Z,2.22
2019-03-12T17:17:47.366Z,1.80
2019-03-12T17:20:16.603Z,2.05
2019-03-12T17:22:45.067Z,2.08
2019-03-12T17:25:13.368Z,2.10
2019-03-12T17:27:41.588Z,1.70
2019-03-12T17:30:20.487Z,2.08
2019-03-12T17:32:48.779Z,1.98
2019-03-12T17:35:31.536Z,2.08
2019-03-12T17:37:59.770Z,2.00
2019-03-12T17:40:28.028Z,2.05
2019-03-12T17:42:56.386Z,1.70
2019-03-12T17:45:24.620Z,1.90
2019-03-12T17:47:52.858Z,1.85
2019-03-12T17:50:21.105Z,1.92
2019-03-12T17:52:49.334Z,2.15
2019-03-12T17:55:17.585Z,2.10
2019-03-12T17:57:45.812Z,2.00
2019-03-12T18:00:17.477Z,1.95
2019-03-12T18:02:45.706Z,2.12
2019-03-12T18:05:14.030Z,1.85
2019-03-12T18:07:42.238Z,1.62
2019-03-12T18:10:17.272Z,2.00
2019-03-12T18:12:45.465Z,2.30
2019-03-12T18:15:20.252Z,2.40
2019-03-12T18:17:48.571Z,2.02
2019-03-12T18:20:24.547Z,2.12
2019-03-12T18:22:52.747Z,2.10
2019-03-12T18:25:33.838Z,2.12
2019-03-12T18:28:02.069Z,1.90
2019-03-12T18:30:30.305Z,2.22
2019-03-12T18:32:58.575Z,2.05
2019-03-12T18:35:26.798Z,2.00
2019-03-12T18:37:55.038Z,1.80
2019-03-12T18:40:27.120Z,2.33
2019-03-12T18:42:55.341Z,2.08
2019-03-12T18:45:26.071Z,1.45
2019-03-12T18:47:54.307Z,2.20
2019-03-12T18:50:22.556Z,2.00
2019-03-12T18:52:50.779Z,1.85
2019-03-12T18:55:37.552Z,2.30
2019-03-12T18:58:06.135Z,2.20
2019-03-12T19:00:35.124Z,2.20
2019-03-12T19:03:03.374Z,1.98
2019-03-12T19:05:31.639Z,2.00
2019-03-12T19:07:59.851Z,1.55
2019-03-12T19:10:28.093Z,1.65
2019-03-12T19:12:56.335Z,1.55
2019-03-12T19:15:24.647Z,2.10
2019-03-12T19:17:52.938Z,2.37
2019-03-12T19:20:21.174Z,2.10
2019-03-12T19:22:49.416Z,2.02
2019-03-12T19:25:28.464Z,2.52
2019-03-12T19:28:00.346Z,2.10
2019-03-12T19:30:26.778Z,2.15
2019-03-12T19:33:11.163Z,2.15
2019-03-12T19:35:39.439Z,2.05
2019-03-12T19:38:07.645Z,1.92
2019-03-12T19:40:53.273Z,2.15
2019-03-12T19:43:21.587Z,2.20
2019-03-12T19:45:49.846Z,2.10
2019-03-12T19:48:18.103Z,2.33
2019-03-12T19:50:46.359Z,2.25
2019-03-12T19:53:14.967Z,1.95
2019-03-12T19:55:49.023Z,2.47
2019-03-12T19:58:17.343Z,2.55
2019-03-12T20:00:45.784Z,3.15
2019-03-12T20:03:15.269Z,3.60
2019-03-12T20:05:43.964Z,3.50
2019-03-12T20:08:12.159Z,3.65
2019-03-12T20:10:49.688Z,3.05
2019-03-12T20:13:54.350Z,3.50
2019-03-12T20:16:31.903Z,3.42
2019-03-12T20:19:36.169Z,2.90
2019-03-12T20:22:41.958Z,2.60
2019-03-12T20:25:39.179Z,2.33
2019-03-12T20:28:36.119Z,2.58
2019-03-12T20:31:13.158Z,2.25
2019-03-12T20:33:47.292Z,2.50
2019-03-12T20:36:50.376Z,2.40
2019-03-12T20:39:39.592Z,2.37
2019-03-12T20:42:39.429Z,1.85
2019-03-12T20:45:33.087Z,2.50
2019-03-12T20:48:20.832Z,3.10
2019-03-12T20:51:23.974Z,1.90
2019-03-12T20:54:11.718Z,2.40
2019-03-12T20:57:00.953Z,2.22
2019-03-12T20:59:48.586Z,2.27
2019-03-12T21:02:28.878Z,2.10
2019-03-12T21:05:08.943Z,2.33
2019-03-12T21:08:13.342Z,2.22
2019-03-12T21:11:17.410Z,2.40
2019-03-12T21:14:21.648Z,2.45
2019-03-12T21:17:26.118Z,1.87
2019-03-12T21:20:20.322Z,2.02
2019-03-12T21:23:06.496Z,1.62
2019-03-12T21:26:06.689Z,2.47
2019-03-12T21:28:44.238Z,1.42
2019-03-12T21:31:14.897Z,0.80
2019-03-12T21:33:42.435Z,0.88
2019-03-12T21:36:10.649Z,0.90
2019-03-12T21:38:38.885Z,1.15
2019-03-12T21:41:07.109Z,1.00
2019-03-12T21:43:35.395Z,1.10
2019-03-12T21:46:03.736Z,1.47
2019-03-12T21:48:32.024Z,1.75
2019-03-12T21:51:00.251Z,2.25
2019-03-12T21:53:28.591Z,2.60
2019-03-12T21:55:56.935Z,3.58
2019-03-12T21:58:25.177Z,3.75
2019-03-12T22:00:53.415Z,4.17
2019-03-12T22:03:21.680Z,4.60
2019-03-12T22:05:49.906Z,5.08
2019-03-12T22:08:18.145Z,6.67
2019-03-12T22:10:46.387Z,5.53
2019-03-12T22:13:14.615Z,6.28
2019-03-12T22:15:42.861Z,6.97
2019-03-12T22:18:11.080Z,6.47
2019-03-12T22:20:39.301Z,6.72
2019-03-12T22:23:09.169Z,5.37
2019-03-12T22:25:37.395Z,6.95
2019-03-12T22:28:05.614Z,6.15
2019-03-12T22:30:33.851Z,6.03
2019-03-12T22:33:02.100Z,5.83
2019-03-12T22:35:30.360Z,6.25
2019-03-12T22:37:58.579Z,5.15
2019-03-12T22:40:26.826Z,5.78
2019-03-12T22:42:55.029Z,5.85
2019-03-12T22:45:23.255Z,6.37
2019-03-12T22:47:51.477Z,6.00
2019-03-12T22:50:19.710Z,6.75
2019-03-12T22:52:47.965Z,6.53
2019-03-12T22:55:16.190Z,6.33
2019-03-12T22:57:44.487Z,6.45
2019-03-12T23:00:19.829Z,7.17
2019-03-12T23:02:48.058Z,7.20
2019-03-12T23:05:16.295Z,6.72
2019-03-12T23:07:44.744Z,6.95
2019-03-12T23:10:14.599Z,7.85
2019-03-12T23:12:43.091Z,7.97
2019-03-12T23:15:16.374Z,8.70
2019-03-12T23:17:44.607Z,8.73
2019-03-12T23:20:14.935Z,7.87
2019-03-12T23:22:43.181Z,8.70
2019-03-12T23:25:11.430Z,8.08
2019-03-12T23:27:39.727Z,9.55
2019-03-12T23:30:11.214Z,8.65
2019-03-12T23:32:39.462Z,9.65
2019-03-12T23:35:08.319Z,9.53
2019-03-12T23:37:36.550Z,9.18
2019-03-12T23:40:13.086Z,9.13
2019-03-12T23:42:41.338Z,8.50
2019-03-12T23:45:10.607Z,8.00
2019-03-12T23:47:38.824Z,7.08
2019-03-12T23:50:12.357Z,6.65
2019-03-12T23:52:40.590Z,6.55
2019-03-12T23:55:14.206Z,4.70
2019-03-12T23:57:42.428Z,4.78
